sensor_id;sensor_type;location;lat;lon;timestamp;temperature;humidity
39219;DHT22;24934;52.752;6.964;2023-02-15T00:01:34;0.20;99.90
39219;DHT22;24934;52.752;6.964;2023-02-15T00:04:01;0.20;99.90
39219;DHT22;24934;52.752;6.964;2023-02-15T00:06:26;0.20;99.90
39219;DHT22;24934;52.752;6.964;2023-02-15T00:08:53;0.10;99.90
39219;DHT22;24934;52.752;6.964;2023-02-15T00:11:19;0.10;99.90
39219;DHT22;24934;52.752;6.964;2023-02-15T00:14:18;0.00;99.90
39219;DHT22;24934;52.752;6.964;2023-02-15T00:16:44;-0.10;99.90
39219;DHT22;24934;52.752;6.964;2023-02-15T00:19:11;-0.10;99.90
39219;DHT22;24934;52.752;6.964;2023-02-15T00:21:38;-0.20;99.90
39219;DHT22;24934;52.752;6.964;2023-02-15T00:24:05;-0.20;99.90
39219;DHT22;24934;52.752;6.964;2023-02-15T00:26:31;-0.10;99.90
39219;DHT22;24934;52.752;6.964;2023-02-15T00:28:58;-0.10;99.90
39219;DHT22;24934;52.752;6.964;2023-02-15T00:31:24;-0.20;99.90
39219;DHT22;24934;52.752;6.964;2023-02-15T00:33:50;-0.20;99.90
39219;DHT22;24934;52.752;6.964;2023-02-15T00:36:16;-0.20;99.90
39219;DHT22;24934;52.752;6.964;2023-02-15T00:38:42;-0.20;99.90
39219;DHT22;24934;52.752;6.964;2023-02-15T00:41:09;-0.20;99.90
39219;DHT22;24934;52.752;6.964;2023-02-15T00:43:35;-0.20;99.90
39219;DHT22;24934;52.752;6.964;2023-02-15T00:46:03;-0.20;99.90
39219;DHT22;24934;52.752;6.964;2023-02-15T00:48:29;-0.10;99.90
39219;DHT22;24934;52.752;6.964;2023-02-15T00:50:58;-0.10;99.90
39219;DHT22;24934;52.752;6.964;2023-02-15T00:53:25;-0.20;99.90
39219;DHT22;24934;52.752;6.964;2023-02-15T00:55:51;-0.20;99.90
39219;DHT22;24934;52.752;6.964;2023-02-15T00:58:17;-0.20;99.90
39219;DHT22;24934;52.752;6.964;2023-02-15T01:00:44;-0.20;99.90
39219;DHT22;24934;52.752;6.964;2023-02-15T01:03:11;-0.30;99.90
39219;DHT22;24934;52.752;6.964;2023-02-15T01:05:37;-0.30;99.90
39219;DHT22;24934;52.752;6.964;2023-02-15T01:08:02;-0.20;99.90
39219;DHT22;24934;52.752;6.964;2023-02-15T01:10:29;-0.20;99.90
39219;DHT22;24934;52.752;6.964;2023-02-15T01:12:55;-0.30;99.90
39219;DHT22;24934;52.752;6.964;2023-02-15T01:15:22;-0.40;99.90
39219;DHT22;24934;52.752;6.964;2023-02-15T01:17:48;-0.40;99.90
39219;DHT22;24934;52.752;6.964;2023-02-15T01:20:26;-0.40;99.90
39219;DHT22;24934;52.752;6.964;2023-02-15T01:22:52;-0.40;99.90
39219;DHT22;24934;52.752;6.964;2023-02-15T01:25:20;-0.40;99.90
39219;DHT22;24934;52.752;6.964;2023-02-15T01:27:47;-0.40;99.90
39219;DHT22;24934;52.752;6.964;2023-02-15T01:30:14;-0.50;99.90
39219;DHT22;24934;52.752;6.964;2023-02-15T01:32:40;-0.50;99.90
39219;DHT22;24934;52.752;6.964;2023-02-15T01:35:07;-0.50;99.90
39219;DHT22;24934;52.752;6.964;2023-02-15T01:37:33;-0.60;99.90
39219;DHT22;24934;52.752;6.964;2023-02-15T01:40:00;-0.60;99.90
39219;DHT22;24934;52.752;6.964;2023-02-15T01:42:28;-0.50;99.90
39219;DHT22;24934;52.752;6.964;2023-02-15T01:44:56;-0.60;99.90
39219;DHT22;24934;52.752;6.964;2023-02-15T01:52:56;-0.70;99.90
39219;DHT22;24934;52.752;6.964;2023-02-15T01:55:26;-0.70;99.90
39219;DHT22;24934;52.752;6.964;2023-02-15T01:57:52;-0.60;99.90
39219;DHT22;24934;52.752;6.964;2023-02-15T02:00:19;-0.60;99.90
39219;DHT22;24934;52.752;6.964;2023-02-15T02:02:48;-0.50;99.90
39219;DHT22;24934;52.752;6.964;2023-02-15T02:05:14;-0.60;99.90
39219;DHT22;24934;52.752;6.964;2023-02-15T02:07:45;-0.60;99.90
39219;DHT22;24934;52.752;6.964;2023-02-15T02:10:15;-0.60;99.90
39219;DHT22;24934;52.752;6.964;2023-02-15T02:12:43;-0.60;99.90
39219;DHT22;24934;52.752;6.964;2023-02-15T02:15:21;-0.60;99.90
39219;DHT22;24934;52.752;6.964;2023-02-15T02:31:28;-0.60;99.90
39219;DHT22;24934;52.752;6.964;2023-02-15T02:36:55;-0.70;99.90
39219;DHT22;24934;52.752;6.964;2023-02-15T02:39:52;-0.70;99.90
39219;DHT22;24934;52.752;6.964;2023-02-15T02:47:59;-0.60;99.90
39219;DHT22;24934;52.752;6.964;2023-02-15T02:50:28;-0.60;99.90
39219;DHT22;24934;52.752;6.964;2023-02-15T02:52:56;-0.60;99.90
39219;DHT22;24934;52.752;6.964;2023-02-15T02:55:31;-0.70;99.90
39219;DHT22;24934;52.752;6.964;2023-02-15T03:01:01;-0.70;99.90
39219;DHT22;24934;52.752;6.964;2023-02-15T03:03:46;-0.80;99.90
39219;DHT22;24934;52.752;6.964;2023-02-15T03:06:16;-0.80;99.90
39219;DHT22;24934;52.752;6.964;2023-02-15T03:08:57;-0.80;99.90
39219;DHT22;24934;52.752;6.964;2023-02-15T03:11:23;-0.60;99.90
39219;DHT22;24934;52.752;6.964;2023-02-15T03:13:49;-0.30;99.90
39219;DHT22;24934;52.752;6.964;2023-02-15T03:16:16;-0.30;99.90
39219;DHT22;24934;52.752;6.964;2023-02-15T03:21:41;-0.40;99.90
39219;DHT22;24934;52.752;6.964;2023-02-15T03:24:10;-0.50;99.90
39219;DHT22;24934;52.752;6.964;2023-02-15T03:26:39;-0.50;99.90
39219;DHT22;24934;52.752;6.964;2023-02-15T03:29:06;-0.60;99.90
39219;DHT22;24934;52.752;6.964;2023-02-15T03:31:42;-0.60;99.90
39219;DHT22;24934;52.752;6.964;2023-02-15T03:34:11;-0.60;99.90
39219;DHT22;24934;52.752;6.964;2023-02-15T03:36:50;-0.60;99.90
39219;DHT22;24934;52.752;6.964;2023-02-15T03:42:03;-0.60;99.90
39219;DHT22;24934;52.752;6.964;2023-02-15T03:47:33;-0.60;99.90
39219;DHT22;24934;52.752;6.964;2023-02-15T03:50:15;-0.70;99.90
39219;DHT22;24934;52.752;6.964;2023-02-15T03:53:05;-0.80;99.90
39219;DHT22;24934;52.752;6.964;2023-02-15T03:55:31;-0.90;99.90
39219;DHT22;24934;52.752;6.964;2023-02-15T03:57:58;-0.90;99.90
39219;DHT22;24934;52.752;6.964;2023-02-15T04:00:54;-1.00;99.90
39219;DHT22;24934;52.752;6.964;2023-02-15T04:03:45;-1.00;99.90
39219;DHT22;24934;52.752;6.964;2023-02-15T04:06:14;-1.00;99.90
39219;DHT22;24934;52.752;6.964;2023-02-15T04:08:40;-1.00;99.90
39219;DHT22;24934;52.752;6.964;2023-02-15T04:11:24;-1.00;99.90
39219;DHT22;24934;52.752;6.964;2023-02-15T04:13:50;-0.90;99.90
39219;DHT22;24934;52.752;6.964;2023-02-15T04:16:24;-0.90;99.90
39219;DHT22;24934;52.752;6.964;2023-02-15T04:18:49;-0.80;99.90
39219;DHT22;24934;52.752;6.964;2023-02-15T04:21:34;-0.90;99.90
39219;DHT22;24934;52.752;6.964;2023-02-15T04:24:18;-0.90;99.90
39219;DHT22;24934;52.752;6.964;2023-02-15T04:27:03;-1.00;99.90
39219;DHT22;24934;52.752;6.964;2023-02-15T04:29:29;-1.10;99.90
39219;DHT22;24934;52.752;6.964;2023-02-15T04:31:56;-1.10;99.90
39219;DHT22;24934;52.752;6.964;2023-02-15T04:34:22;-1.10;99.90
39219;DHT22;24934;52.752;6.964;2023-02-15T04:36:48;-1.20;99.90
39219;DHT22;24934;52.752;6.964;2023-02-15T04:39:16;-1.10;99.90
39219;DHT22;24934;52.752;6.964;2023-02-15T04:41:43;-1.10;99.90
39219;DHT22;24934;52.752;6.964;2023-02-15T04:44:11;-1.20;99.90
39219;DHT22;24934;52.752;6.964;2023-02-15T04:46:36;-1.00;99.90
39219;DHT22;24934;52.752;6.964;2023-02-15T04:49:02;-0.80;99.90
39219;DHT22;24934;52.752;6.964;2023-02-15T04:51:28;-0.80;99.90
39219;DHT22;24934;52.752;6.964;2023-02-15T04:53:54;-0.50;99.90
39219;DHT22;24934;52.752;6.964;2023-02-15T04:56:20;-0.30;99.90
39219;DHT22;24934;52.752;6.964;2023-02-15T04:58:46;-0.20;99.90
39219;DHT22;24934;52.752;6.964;2023-02-15T05:01:13;-0.10;99.90
39219;DHT22;24934;52.752;6.964;2023-02-15T05:03:38;-0.10;99.90
39219;DHT22;24934;52.752;6.964;2023-02-15T05:06:04;-0.10;99.90
39219;DHT22;24934;52.752;6.964;2023-02-15T05:08:31;-0.10;99.90
39219;DHT22;24934;52.752;6.964;2023-02-15T05:10:57;0.00;99.90
39219;DHT22;24934;52.752;6.964;2023-02-15T05:13:23;0.00;99.90
39219;DHT22;24934;52.752;6.964;2023-02-15T05:15:50;0.00;99.90
39219;DHT22;24934;52.752;6.964;2023-02-15T05:18:17;0.00;99.90
39219;DHT22;24934;52.752;6.964;2023-02-15T05:20:43;0.00;99.90
39219;DHT22;24934;52.752;6.964;2023-02-15T05:23:09;-0.10;99.90
39219;DHT22;24934;52.752;6.964;2023-02-15T05:25:35;-0.20;99.90
39219;DHT22;24934;52.752;6.964;2023-02-15T05:28:18;-0.30;99.90
39219;DHT22;24934;52.752;6.964;2023-02-15T05:30:44;-0.50;99.90
39219;DHT22;24934;52.752;6.964;2023-02-15T05:33:10;-0.60;99.90
39219;DHT22;24934;52.752;6.964;2023-02-15T05:35:36;-0.70;99.90
39219;DHT22;24934;52.752;6.964;2023-02-15T05:38:02;-0.80;99.90
39219;DHT22;24934;52.752;6.964;2023-02-15T05:40:27;-0.80;99.90
39219;DHT22;24934;52.752;6.964;2023-02-15T05:42:53;-0.90;99.90
39219;DHT22;24934;52.752;6.964;2023-02-15T05:45:21;-0.90;99.90
39219;DHT22;24934;52.752;6.964;2023-02-15T05:47:47;-0.90;99.90
39219;DHT22;24934;52.752;6.964;2023-02-15T05:50:16;-0.90;99.90
39219;DHT22;24934;52.752;6.964;2023-02-15T05:52:44;-0.80;99.90
39219;DHT22;24934;52.752;6.964;2023-02-15T05:55:10;-0.80;99.90
39219;DHT22;24934;52.752;6.964;2023-02-15T05:57:36;-0.80;99.90
39219;DHT22;24934;52.752;6.964;2023-02-15T06:00:05;-0.80;99.90
39219;DHT22;24934;52.752;6.964;2023-02-15T06:02:40;-0.70;99.90
39219;DHT22;24934;52.752;6.964;2023-02-15T06:05:07;-0.80;99.90
39219;DHT22;24934;52.752;6.964;2023-02-15T06:07:32;-0.80;99.90
39219;DHT22;24934;52.752;6.964;2023-02-15T06:09:58;-0.80;99.90
39219;DHT22;24934;52.752;6.964;2023-02-15T06:12:27;-0.80;99.90
39219;DHT22;24934;52.752;6.964;2023-02-15T06:14:52;-0.80;99.90
39219;DHT22;24934;52.752;6.964;2023-02-15T06:17:18;-0.80;99.90
39219;DHT22;24934;52.752;6.964;2023-02-15T06:19:44;-0.70;99.90
39219;DHT22;24934;52.752;6.964;2023-02-15T06:22:09;-0.80;99.90
39219;DHT22;24934;52.752;6.964;2023-02-15T06:24:35;-0.80;99.90
39219;DHT22;24934;52.752;6.964;2023-02-15T06:27:01;-0.80;99.90
39219;DHT22;24934;52.752;6.964;2023-02-15T06:29:29;-0.80;99.90
39219;DHT22;24934;52.752;6.964;2023-02-15T06:31:56;-0.80;99.90
39219;DHT22;24934;52.752;6.964;2023-02-15T06:34:25;-0.80;99.90
39219;DHT22;24934;52.752;6.964;2023-02-15T06:36:50;-0.80;99.90
39219;DHT22;24934;52.752;6.964;2023-02-15T06:39:21;-0.80;99.90
39219;DHT22;24934;52.752;6.964;2023-02-15T06:41:47;-0.80;99.90
39219;DHT22;24934;52.752;6.964;2023-02-15T06:44:13;-0.80;99.90
39219;DHT22;24934;52.752;6.964;2023-02-15T06:46:42;-0.80;99.90
39219;DHT22;24934;52.752;6.964;2023-02-15T06:49:07;-0.80;99.90
39219;DHT22;24934;52.752;6.964;2023-02-15T06:51:33;-0.80;99.90
39219;DHT22;24934;52.752;6.964;2023-02-15T06:53:59;-0.80;99.90
39219;DHT22;24934;52.752;6.964;2023-02-15T06:56:25;-0.90;99.90
39219;DHT22;24934;52.752;6.964;2023-02-15T06:58:51;-0.90;99.90
39219;DHT22;24934;52.752;6.964;2023-02-15T07:01:18;-0.90;99.90
39219;DHT22;24934;52.752;6.964;2023-02-15T07:03:43;-0.90;99.90
39219;DHT22;24934;52.752;6.964;2023-02-15T07:06:09;-0.80;99.90
39219;DHT22;24934;52.752;6.964;2023-02-15T07:08:40;-0.70;99.90
39219;DHT22;24934;52.752;6.964;2023-02-15T07:11:06;-0.60;99.90
39219;DHT22;24934;52.752;6.964;2023-02-15T07:13:51;-0.40;99.90
39219;DHT22;24934;52.752;6.964;2023-02-15T07:16:20;-0.30;99.90
39219;DHT22;24934;52.752;6.964;2023-02-15T07:18:46;-0.20;99.90
39219;DHT22;24934;52.752;6.964;2023-02-15T07:21:12;0.00;99.90
39219;DHT22;24934;52.752;6.964;2023-02-15T07:23:38;0.20;99.90
39219;DHT22;24934;52.752;6.964;2023-02-15T07:26:06;0.30;99.90
39219;DHT22;24934;52.752;6.964;2023-02-15T07:28:34;0.50;99.90
39219;DHT22;24934;52.752;6.964;2023-02-15T07:31:03;0.60;99.90
39219;DHT22;24934;52.752;6.964;2023-02-15T07:33:33;0.90;99.90
39219;DHT22;24934;52.752;6.964;2023-02-15T07:36:02;1.10;99.90
39219;DHT22;24934;52.752;6.964;2023-02-15T07:38:34;1.60;99.90
39219;DHT22;24934;52.752;6.964;2023-02-15T07:41:01;2.20;99.90
39219;DHT22;24934;52.752;6.964;2023-02-15T07:43:28;2.70;99.90
39219;DHT22;24934;52.752;6.964;2023-02-15T07:45:58;3.20;99.90
39219;DHT22;24934;52.752;6.964;2023-02-15T07:48:24;3.50;99.90
39219;DHT22;24934;52.752;6.964;2023-02-15T07:50:50;3.90;99.90
39219;DHT22;24934;52.752;6.964;2023-02-15T07:53:15;4.10;99.90
39219;DHT22;24934;52.752;6.964;2023-02-15T07:55:41;4.60;99.90
39219;DHT22;24934;52.752;6.964;2023-02-15T07:58:07;5.00;99.90
39219;DHT22;24934;52.752;6.964;2023-02-15T08:00:32;5.30;99.90
39219;DHT22;24934;52.752;6.964;2023-02-15T08:03:18;5.70;99.90
39219;DHT22;24934;52.752;6.964;2023-02-15T08:05:44;6.40;99.90
39219;DHT22;24934;52.752;6.964;2023-02-15T08:08:12;6.80;99.90
39219;DHT22;24934;52.752;6.964;2023-02-15T08:11:04;7.20;99.90
39219;DHT22;24934;52.752;6.964;2023-02-15T08:14:09;7.40;99.90
39219;DHT22;24934;52.752;6.964;2023-02-15T08:19:25;7.40;99.90
39219;DHT22;24934;52.752;6.964;2023-02-15T08:21:54;7.50;99.90
39219;DHT22;24934;52.752;6.964;2023-02-15T08:24:42;7.10;99.90
39219;DHT22;24934;52.752;6.964;2023-02-15T08:27:12;7.00;99.90
39219;DHT22;24934;52.752;6.964;2023-02-15T08:29:38;6.80;99.90
39219;DHT22;24934;52.752;6.964;2023-02-15T08:32:07;6.70;99.90
39219;DHT22;24934;52.752;6.964;2023-02-15T08:34:36;6.80;99.90
39219;DHT22;24934;52.752;6.964;2023-02-15T08:37:03;7.00;99.90
39219;DHT22;24934;52.752;6.964;2023-02-15T08:39:28;6.80;99.90
39219;DHT22;24934;52.752;6.964;2023-02-15T08:41:54;7.10;99.90
39219;DHT22;24934;52.752;6.964;2023-02-15T08:44:20;6.90;99.90
39219;DHT22;24934;52.752;6.964;2023-02-15T08:46:49;6.70;99.90
39219;DHT22;24934;52.752;6.964;2023-02-15T08:49:22;6.80;99.90
39219;DHT22;24934;52.752;6.964;2023-02-15T08:51:48;6.70;99.90
39219;DHT22;24934;52.752;6.964;2023-02-15T08:54:17;6.60;99.90
39219;DHT22;24934;52.752;6.964;2023-02-15T08:56:43;6.80;99.90
39219;DHT22;24934;52.752;6.964;2023-02-15T08:59:15;6.50;99.90
39219;DHT22;24934;52.752;6.964;2023-02-15T09:01:41;6.40;99.90
39219;DHT22;24934;52.752;6.964;2023-02-15T09:04:08;6.30;99.90
39219;DHT22;24934;52.752;6.964;2023-02-15T09:06:38;5.90;99.90
39219;DHT22;24934;52.752;6.964;2023-02-15T09:09:04;6.10;99.90
39219;DHT22;24934;52.752;6.964;2023-02-15T09:11:33;5.90;99.90
39219;DHT22;24934;52.752;6.964;2023-02-15T09:14:05;6.00;99.90
39219;DHT22;24934;52.752;6.964;2023-02-15T09:16:34;5.90;99.90
39219;DHT22;24934;52.752;6.964;2023-02-15T09:19:00;5.70;99.90
39219;DHT22;24934;52.752;6.964;2023-02-15T09:21:32;5.60;99.90
39219;DHT22;24934;52.752;6.964;2023-02-15T09:24:00;5.90;99.90
39219;DHT22;24934;52.752;6.964;2023-02-15T09:26:28;6.20;99.90
39219;DHT22;24934;52.752;6.964;2023-02-15T09:28:56;6.60;99.90
39219;DHT22;24934;52.752;6.964;2023-02-15T09:31:25;6.80;99.90
39219;DHT22;24934;52.752;6.964;2023-02-15T09:33:53;7.00;99.90
39219;DHT22;24934;52.752;6.964;2023-02-15T09:38:48;7.40;99.90
39219;DHT22;24934;52.752;6.964;2023-02-15T09:51:05;7.20;99.90
39219;DHT22;24934;52.752;6.964;2023-02-15T09:56:14;7.20;99.90
39219;DHT22;24934;52.752;6.964;2023-02-15T09:58:59;7.60;99.90
39219;DHT22;24934;52.752;6.964;2023-02-15T10:09:40;9.50;99.90
39219;DHT22;24934;52.752;6.964;2023-02-15T10:18:20;10.10;99.90
39219;DHT22;24934;52.752;6.964;2023-02-15T10:26:20;10.60;99.90
39219;DHT22;24934;52.752;6.964;2023-02-15T10:28:51;10.60;99.90
39219;DHT22;24934;52.752;6.964;2023-02-15T10:33:53;10.40;99.90
39219;DHT22;24934;52.752;6.964;2023-02-15T10:39:33;10.00;99.90
39219;DHT22;24934;52.752;6.964;2023-02-15T10:45:35;10.00;99.90
39219;DHT22;24934;52.752;6.964;2023-02-15T10:50:59;9.80;99.90
39219;DHT22;24934;52.752;6.964;2023-02-15T10:56:36;10.20;99.90
39219;DHT22;24934;52.752;6.964;2023-02-15T11:07:41;10.30;99.90
39219;DHT22;24934;52.752;6.964;2023-02-15T11:12:48;10.70;99.90
39219;DHT22;24934;52.752;6.964;2023-02-15T11:15:38;11.00;99.90
39219;DHT22;24934;52.752;6.964;2023-02-15T11:18:32;11.30;99.90
39219;DHT22;24934;52.752;6.964;2023-02-15T11:21:19;11.40;99.90
39219;DHT22;24934;52.752;6.964;2023-02-15T11:23:46;11.30;99.90
39219;DHT22;24934;52.752;6.964;2023-02-15T11:26:37;11.40;99.90
39219;DHT22;24934;52.752;6.964;2023-02-15T11:29:13;11.30;99.90
39219;DHT22;24934;52.752;6.964;2023-02-15T11:31:50;11.40;99.90
39219;DHT22;24934;52.752;6.964;2023-02-15T11:34:37;11.50;99.90
39219;DHT22;24934;52.752;6.964;2023-02-15T11:37:16;11.40;99.90
39219;DHT22;24934;52.752;6.964;2023-02-15T11:39:43;11.50;99.90
39219;DHT22;24934;52.752;6.964;2023-02-15T11:42:20;11.60;99.90
39219;DHT22;24934;52.752;6.964;2023-02-15T11:47:22;11.70;99.90
39219;DHT22;24934;52.752;6.964;2023-02-15T11:49:48;11.90;99.90
39219;DHT22;24934;52.752;6.964;2023-02-15T11:52:16;12.10;99.90
39219;DHT22;24934;52.752;6.964;2023-02-15T11:54:46;11.90;99.90
39219;DHT22;24934;52.752;6.964;2023-02-15T11:57:25;11.80;99.90
39219;DHT22;24934;52.752;6.964;2023-02-15T12:00:32;11.80;99.90
39219;DHT22;24934;52.752;6.964;2023-02-15T12:03:09;11.90;99.90
39219;DHT22;24934;52.752;6.964;2023-02-15T12:05:40;11.90;99.90
39219;DHT22;24934;52.752;6.964;2023-02-15T12:08:17;12.00;99.90
39219;DHT22;24934;52.752;6.964;2023-02-15T12:13:33;12.20;99.90
39219;DHT22;24934;52.752;6.964;2023-02-15T12:16:05;12.00;99.90
39219;DHT22;24934;52.752;6.964;2023-02-15T12:18:39;12.20;99.90
39219;DHT22;24934;52.752;6.964;2023-02-15T12:21:11;12.30;99.90
39219;DHT22;24934;52.752;6.964;2023-02-15T12:23:51;12.30;99.90
39219;DHT22;24934;52.752;6.964;2023-02-15T12:26:31;12.50;99.90
39219;DHT22;24934;52.752;6.964;2023-02-15T12:29:01;12.50;99.90
39219;DHT22;24934;52.752;6.964;2023-02-15T12:31:45;12.60;99.90
39219;DHT22;24934;52.752;6.964;2023-02-15T12:37:27;12.80;99.90
39219;DHT22;24934;52.752;6.964;2023-02-15T12:39:56;13.00;99.90
39219;DHT22;24934;52.752;6.964;2023-02-15T12:42:23;13.10;99.90
39219;DHT22;24934;52.752;6.964;2023-02-15T12:47:22;13.10;99.90
39219;DHT22;24934;52.752;6.964;2023-02-15T12:50:08;13.10;99.90
39219;DHT22;24934;52.752;6.964;2023-02-15T12:52:36;13.10;99.90
39219;DHT22;24934;52.752;6.964;2023-02-15T12:57:47;12.90;99.90
39219;DHT22;24934;52.752;6.964;2023-02-15T13:02:55;13.50;99.90
39219;DHT22;24934;52.752;6.964;2023-02-15T13:05:35;13.60;99.90
39219;DHT22;24934;52.752;6.964;2023-02-15T13:08:48;13.50;99.90
39219;DHT22;24934;52.752;6.964;2023-02-15T13:10:56;13.40;99.90
39219;DHT22;24934;52.752;6.964;2023-02-15T13:13:30;13.40;99.90
39219;DHT22;24934;52.752;6.964;2023-02-15T13:15:59;13.40;99.90
39219;DHT22;24934;52.752;6.964;2023-02-15T13:18:38;13.30;99.90
39219;DHT22;24934;52.752;6.964;2023-02-15T13:21:14;13.40;99.90
39219;DHT22;24934;52.752;6.964;2023-02-15T13:23:57;13.30;99.90
39219;DHT22;24934;52.752;6.964;2023-02-15T13:26:26;13.30;99.90
39219;DHT22;24934;52.752;6.964;2023-02-15T13:29:23;13.20;99.90
39219;DHT22;24934;52.752;6.964;2023-02-15T13:31:50;13.30;99.90
39219;DHT22;24934;52.752;6.964;2023-02-15T13:34:25;13.30;99.90
39219;DHT22;24934;52.752;6.964;2023-02-15T13:37:19;13.30;99.90
39219;DHT22;24934;52.752;6.964;2023-02-15T13:42:56;13.10;99.90
39219;DHT22;24934;52.752;6.964;2023-02-15T13:54:04;12.90;99.90
39219;DHT22;24934;52.752;6.964;2023-02-15T14:05:56;12.90;99.90
39219;DHT22;24934;52.752;6.964;2023-02-15T14:11:21;13.10;99.90
39219;DHT22;24934;52.752;6.964;2023-02-15T14:13:54;13.20;99.90
39219;DHT22;24934;52.752;6.964;2023-02-15T14:22:36;13.20;99.90
39219;DHT22;24934;52.752;6.964;2023-02-15T14:25:38;13.10;99.90
39219;DHT22;24934;52.752;6.964;2023-02-15T14:28:28;13.10;99.90
39219;DHT22;24934;52.752;6.964;2023-02-15T14:30:56;13.10;99.90
39219;DHT22;24934;52.752;6.964;2023-02-15T14:33:31;13.00;99.90
39219;DHT22;24934;52.752;6.964;2023-02-15T14:36:03;12.90;99.90
39219;DHT22;24934;52.752;6.964;2023-02-15T14:41:17;12.60;99.90
39219;DHT22;24934;52.752;6.964;2023-02-15T14:44:08;12.50;99.90
39219;DHT22;24934;52.752;6.964;2023-02-15T14:46:55;12.40;99.90
39219;DHT22;24934;52.752;6.964;2023-02-15T14:49:27;12.30;99.90
39219;DHT22;24934;52.752;6.964;2023-02-15T14:51:57;12.20;99.90
39219;DHT22;24934;52.752;6.964;2023-02-15T15:09:42;11.90;99.90
39219;DHT22;24934;52.752;6.964;2023-02-15T15:15:04;11.70;99.90
39219;DHT22;24934;52.752;6.964;2023-02-15T15:20:13;11.50;99.90
39219;DHT22;24934;52.752;6.964;2023-02-15T15:25:50;11.30;99.90
39219;DHT22;24934;52.752;6.964;2023-02-15T15:33:56;11.20;99.90
39219;DHT22;24934;52.752;6.964;2023-02-15T15:36:55;11.10;99.90
39219;DHT22;24934;52.752;6.964;2023-02-15T15:42:19;10.90;99.90
39219;DHT22;24934;52.752;6.964;2023-02-15T15:45:13;10.90;99.90
39219;DHT22;24934;52.752;6.964;2023-02-15T15:47:50;10.80;99.90
39219;DHT22;24934;52.752;6.964;2023-02-15T15:50:19;10.70;99.90
39219;DHT22;24934;52.752;6.964;2023-02-15T15:52:53;10.60;99.90
39219;DHT22;24934;52.752;6.964;2023-02-15T15:55:24;10.50;99.90
39219;DHT22;24934;52.752;6.964;2023-02-15T15:57:53;10.40;99.90
39219;DHT22;24934;52.752;6.964;2023-02-15T16:00:33;10.40;99.90
39219;DHT22;24934;52.752;6.964;2023-02-15T16:03:00;10.30;99.90
39219;DHT22;24934;52.752;6.964;2023-02-15T16:05:25;10.20;99.90
39219;DHT22;24934;52.752;6.964;2023-02-15T16:07:51;10.10;99.90
39219;DHT22;24934;52.752;6.964;2023-02-15T16:10:24;10.00;99.90
39219;DHT22;24934;52.752;6.964;2023-02-15T16:12:53;9.90;99.90
39219;DHT22;24934;52.752;6.964;2023-02-15T16:15:35;9.80;99.90
39219;DHT22;24934;52.752;6.964;2023-02-15T16:18:04;9.70;99.90
39219;DHT22;24934;52.752;6.964;2023-02-15T16:20:35;9.60;99.90
39219;DHT22;24934;52.752;6.964;2023-02-15T16:26:07;9.40;99.90
39219;DHT22;24934;52.752;6.964;2023-02-15T16:28:36;9.20;99.90
39219;DHT22;24934;52.752;6.964;2023-02-15T16:31:13;9.10;99.90
39219;DHT22;24934;52.752;6.964;2023-02-15T16:33:43;9.00;99.90
39219;DHT22;24934;52.752;6.964;2023-02-15T16:36:23;8.90;99.90
39219;DHT22;24934;52.752;6.964;2023-02-15T16:41:22;8.60;99.90
39219;DHT22;24934;52.752;6.964;2023-02-15T16:43:52;8.60;99.90
39219;DHT22;24934;52.752;6.964;2023-02-15T16:46:25;8.50;99.90
39219;DHT22;24934;52.752;6.964;2023-02-15T16:48:53;8.40;99.90
39219;DHT22;24934;52.752;6.964;2023-02-15T16:51:29;8.40;99.90
39219;DHT22;24934;52.752;6.964;2023-02-15T16:53:57;8.20;99.90
39219;DHT22;24934;52.752;6.964;2023-02-15T16:56:27;8.20;99.90
39219;DHT22;24934;52.752;6.964;2023-02-15T16:58:56;8.00;99.90
39219;DHT22;24934;52.752;6.964;2023-02-15T17:01:25;7.90;99.90
39219;DHT22;24934;52.752;6.964;2023-02-15T17:07:15;7.70;99.90
39219;DHT22;24934;52.752;6.964;2023-02-15T17:09:55;7.60;99.90
39219;DHT22;24934;52.752;6.964;2023-02-15T17:12:47;7.50;99.90
39219;DHT22;24934;52.752;6.964;2023-02-15T17:15:35;7.40;99.90
39219;DHT22;24934;52.752;6.964;2023-02-15T17:18:05;7.30;99.90
39219;DHT22;24934;52.752;6.964;2023-02-15T17:20:32;7.20;99.90
39219;DHT22;24934;52.752;6.964;2023-02-15T17:22:59;7.20;99.90
39219;DHT22;24934;52.752;6.964;2023-02-15T17:25:39;7.20;99.90
39219;DHT22;24934;52.752;6.964;2023-02-15T17:28:16;7.20;99.90
39219;DHT22;24934;52.752;6.964;2023-02-15T17:30:42;7.20;99.90
39219;DHT22;24934;52.752;6.964;2023-02-15T17:33:26;7.30;99.90
39219;DHT22;24934;52.752;6.964;2023-02-15T17:36:11;7.20;99.90
39219;DHT22;24934;52.752;6.964;2023-02-15T17:38:39;7.30;99.90
39219;DHT22;24934;52.752;6.964;2023-02-15T17:41:05;7.30;99.90
39219;DHT22;24934;52.752;6.964;2023-02-15T17:43:31;7.30;99.90
39219;DHT22;24934;52.752;6.964;2023-02-15T17:45:57;7.30;99.90
39219;DHT22;24934;52.752;6.964;2023-02-15T17:48:31;7.30;99.90
39219;DHT22;24934;52.752;6.964;2023-02-15T17:51:02;7.30;99.90
39219;DHT22;24934;52.752;6.964;2023-02-15T17:53:28;7.30;99.90
39219;DHT22;24934;52.752;6.964;2023-02-15T17:55:54;7.30;99.90
39219;DHT22;24934;52.752;6.964;2023-02-15T17:58:20;7.20;99.90
39219;DHT22;24934;52.752;6.964;2023-02-15T18:03:44;7.30;99.90
39219;DHT22;24934;52.752;6.964;2023-02-15T18:06:29;7.30;99.90
39219;DHT22;24934;52.752;6.964;2023-02-15T18:09:16;7.30;99.90
39219;DHT22;24934;52.752;6.964;2023-02-15T18:12:01;7.30;99.90
39219;DHT22;24934;52.752;6.964;2023-02-15T18:14:27;7.20;99.90
39219;DHT22;24934;52.752;6.964;2023-02-15T18:16:53;7.10;99.90
39219;DHT22;24934;52.752;6.964;2023-02-15T18:19:24;7.10;99.90
39219;DHT22;24934;52.752;6.964;2023-02-15T18:21:51;7.00;99.90
39219;DHT22;24934;52.752;6.964;2023-02-15T18:24:25;6.90;99.90
39219;DHT22;24934;52.752;6.964;2023-02-15T18:26:54;6.80;99.90
39219;DHT22;24934;52.752;6.964;2023-02-15T18:29:20;6.80;99.90
39219;DHT22;24934;52.752;6.964;2023-02-15T18:31:53;6.70;99.90
39219;DHT22;24934;52.752;6.964;2023-02-15T18:34:31;6.70;99.90
39219;DHT22;24934;52.752;6.964;2023-02-15T18:36:59;6.60;99.90
39219;DHT22;24934;52.752;6.964;2023-02-15T18:39:46;6.60;99.90
39219;DHT22;24934;52.752;6.964;2023-02-15T18:42:32;6.60;99.90
39219;DHT22;24934;52.752;6.964;2023-02-15T18:45:14;6.60;99.90
39219;DHT22;24934;52.752;6.964;2023-02-15T18:47:44;6.50;99.90
39219;DHT22;24934;52.752;6.964;2023-02-15T18:50:14;6.50;99.90
39219;DHT22;24934;52.752;6.964;2023-02-15T18:52:42;6.50;99.90
39219;DHT22;24934;52.752;6.964;2023-02-15T18:55:20;6.50;99.90
39219;DHT22;24934;52.752;6.964;2023-02-15T18:57:48;6.50;99.90
39219;DHT22;24934;52.752;6.964;2023-02-15T19:00:21;6.40;99.90
39219;DHT22;24934;52.752;6.964;2023-02-15T19:02:50;6.40;99.90
39219;DHT22;24934;52.752;6.964;2023-02-15T19:05:16;6.30;99.90
39219;DHT22;24934;52.752;6.964;2023-02-15T19:07:43;6.30;99.90
39219;DHT22;24934;52.752;6.964;2023-02-15T19:10:17;6.30;99.90
39219;DHT22;24934;52.752;6.964;2023-02-15T19:12:43;6.30;99.90
39219;DHT22;24934;52.752;6.964;2023-02-15T19:15:18;6.30;99.90
39219;DHT22;24934;52.752;6.964;2023-02-15T19:17:45;6.30;99.90
39219;DHT22;24934;52.752;6.964;2023-02-15T19:20:16;6.30;99.90